sensor_id;sensor_type;location;lat;lon;timestamp;P1;durP1;ratioP1;P2;durP2;ratioP2
17173;SDS011;8702;48.130;-1.696;2023-02-28T00:00:25;6.67;;;5.43;;
17173;SDS011;8702;48.130;-1.696;2023-02-28T00:02:54;9.30;;;5.10;;
17173;SDS011;8702;48.130;-1.696;2023-02-28T00:05:22;8.73;;;5.63;;
17173;SDS011;8702;48.130;-1.696;2023-02-28T00:07:50;8.73;;;5.80;;
17173;SDS011;8702;48.130;-1.696;2023-02-28T00:10:18;7.23;;;5.50;;
17173;SDS011;8702;48.130;-1.696;2023-02-28T00:12:48;7.63;;;5.53;;
17173;SDS011;8702;48.130;-1.696;2023-02-28T00:15:18;10.53;;;5.40;;
17173;SDS011;8702;48.130;-1.696;2023-02-28T00:17:47;5.63;;;4.67;;
17173;SDS011;8702;48.130;-1.696;2023-02-28T00:20:15;8.27;;;5.53;;
17173;SDS011;8702;48.130;-1.696;2023-02-28T00:22:43;8.10;;;4.93;;
17173;SDS011;8702;48.130;-1.696;2023-02-28T00:25:11;10.27;;;5.23;;
17173;SDS011;8702;48.130;-1.696;2023-02-28T00:27:41;7.47;;;5.00;;
17173;SDS011;8702;48.130;-1.696;2023-02-28T00:30:09;6.20;;;5.20;;
17173;SDS011;8702;48.130;-1.696;2023-02-28T00:32:39;7.03;;;4.73;;
17173;SDS011;8702;48.130;-1.696;2023-02-28T00:35:07;6.87;;;4.70;;
17173;SDS011;8702;48.130;-1.696;2023-02-28T00:37:34;7.67;;;4.90;;
17173;SDS011;8702;48.130;-1.696;2023-02-28T00:40:01;9.90;;;5.27;;
17173;SDS011;8702;48.130;-1.696;2023-02-28T00:42:31;9.43;;;5.23;;
17173;SDS011;8702;48.130;-1.696;2023-02-28T00:44:58;6.30;;;4.53;;
17173;SDS011;8702;48.130;-1.696;2023-02-28T00:47:25;7.50;;;5.07;;
17173;SDS011;8702;48.130;-1.696;2023-02-28T00:49:53;7.70;;;5.27;;
17173;SDS011;8702;48.130;-1.696;2023-02-28T00:52:20;7.33;;;5.10;;
17173;SDS011;8702;48.130;-1.696;2023-02-28T00:54:47;9.10;;;4.90;;
17173;SDS011;8702;48.130;-1.696;2023-02-28T00:57:14;9.80;;;5.40;;
17173;SDS011;8702;48.130;-1.696;2023-02-28T00:59:41;10.47;;;5.53;;
17173;SDS011;8702;48.130;-1.696;2023-02-28T01:02:08;11.67;;;5.13;;
17173;SDS011;8702;48.130;-1.696;2023-02-28T01:04:35;9.23;;;5.13;;
17173;SDS011;8702;48.130;-1.696;2023-02-28T01:07:03;8.00;;;5.23;;
17173;SDS011;8702;48.130;-1.696;2023-02-28T01:09:31;6.47;;;4.67;;
17173;SDS011;8702;48.130;-1.696;2023-02-28T01:11:58;6.40;;;4.90;;
17173;SDS011;8702;48.130;-1.696;2023-02-28T01:14:25;6.43;;;4.67;;
17173;SDS011;8702;48.130;-1.696;2023-02-28T01:16:52;8.17;;;5.47;;
17173;SDS011;8702;48.130;-1.696;2023-02-28T01:19:18;8.93;;;5.23;;
17173;SDS011;8702;48.130;-1.696;2023-02-28T01:21:45;8.30;;;4.97;;
17173;SDS011;8702;48.130;-1.696;2023-02-28T01:24:14;7.80;;;5.13;;
17173;SDS011;8702;48.130;-1.696;2023-02-28T01:26:40;7.07;;;4.83;;
17173;SDS011;8702;48.130;-1.696;2023-02-28T01:29:10;12.13;;;5.10;;
17173;SDS011;8702;48.130;-1.696;2023-02-28T01:31:37;15.17;;;5.40;;
17173;SDS011;8702;48.130;-1.696;2023-02-28T01:34:04;5.33;;;4.20;;
17173;SDS011;8702;48.130;-1.696;2023-02-28T01:36:31;6.07;;;4.60;;
17173;SDS011;8702;48.130;-1.696;2023-02-28T01:38:59;7.87;;;4.73;;
17173;SDS011;8702;48.130;-1.696;2023-02-28T01:41:28;8.13;;;4.60;;
17173;SDS011;8702;48.130;-1.696;2023-02-28T01:43:58;6.97;;;4.40;;
17173;SDS011;8702;48.130;-1.696;2023-02-28T01:46:30;6.93;;;4.50;;
17173;SDS011;8702;48.130;-1.696;2023-02-28T01:49:02;6.23;;;4.30;;
17173;SDS011;8702;48.130;-1.696;2023-02-28T01:51:35;6.47;;;4.40;;
17173;SDS011;8702;48.130;-1.696;2023-02-28T01:54:11;7.97;;;5.17;;
17173;SDS011;8702;48.130;-1.696;2023-02-28T01:56:44;9.87;;;4.77;;
17173;SDS011;8702;48.130;-1.696;2023-02-28T01:59:18;8.90;;;5.70;;
17173;SDS011;8702;48.130;-1.696;2023-02-28T02:01:49;7.03;;;5.27;;
17173;SDS011;8702;48.130;-1.696;2023-02-28T02:04:16;7.80;;;5.50;;
17173;SDS011;8702;48.130;-1.696;2023-02-28T02:06:44;8.70;;;4.80;;
17173;SDS011;8702;48.130;-1.696;2023-02-28T02:09:13;6.47;;;4.33;;
17173;SDS011;8702;48.130;-1.696;2023-02-28T02:11:40;6.83;;;5.03;;
17173;SDS011;8702;48.130;-1.696;2023-02-28T02:14:32;6.03;;;4.77;;
17173;SDS011;8702;48.130;-1.696;2023-02-28T02:17:18;8.00;;;4.33;;
17173;SDS011;8702;48.130;-1.696;2023-02-28T02:22:53;6.63;;;4.37;;
17173;SDS011;8702;48.130;-1.696;2023-02-28T02:25:40;6.67;;;4.37;;
17173;SDS011;8702;48.130;-1.696;2023-02-28T02:28:26;7.87;;;5.13;;
17173;SDS011;8702;48.130;-1.696;2023-02-28T02:31:18;9.83;;;4.73;;
17173;SDS011;8702;48.130;-1.696;2023-02-28T02:37:13;9.30;;;5.40;;
17173;SDS011;8702;48.130;-1.696;2023-02-28T02:39:48;6.67;;;4.70;;
17173;SDS011;8702;48.130;-1.696;2023-02-28T02:42:21;6.97;;;4.90;;
17173;SDS011;8702;48.130;-1.696;2023-02-28T02:44:55;10.43;;;4.77;;
17173;SDS011;8702;48.130;-1.696;2023-02-28T02:47:27;8.73;;;5.27;;
17173;SDS011;8702;48.130;-1.696;2023-02-28T02:49:57;8.90;;;5.57;;
17173;SDS011;8702;48.130;-1.696;2023-02-28T02:52:33;7.33;;;5.10;;
17173;SDS011;8702;48.130;-1.696;2023-02-28T02:55:04;7.13;;;5.20;;
17173;SDS011;8702;48.130;-1.696;2023-02-28T02:57:37;5.50;;;4.93;;
17173;SDS011;8702;48.130;-1.696;2023-02-28T03:00:09;8.00;;;5.10;;
17173;SDS011;8702;48.130;-1.696;2023-02-28T03:02:38;7.10;;;5.17;;
17173;SDS011;8702;48.130;-1.696;2023-02-28T03:05:08;5.73;;;5.00;;
17173;SDS011;8702;48.130;-1.696;2023-02-28T03:07:45;7.70;;;5.07;;
17173;SDS011;8702;48.130;-1.696;2023-02-28T03:13:19;6.47;;;4.90;;
17173;SDS011;8702;48.130;-1.696;2023-02-28T03:19:01;7.10;;;5.33;;
17173;SDS011;8702;48.130;-1.696;2023-02-28T03:21:38;8.93;;;5.47;;
17173;SDS011;8702;48.130;-1.696;2023-02-28T03:24:14;7.67;;;5.37;;
17173;SDS011;8702;48.130;-1.696;2023-02-28T03:26:46;7.53;;;4.90;;
17173;SDS011;8702;48.130;-1.696;2023-02-28T03:29:21;7.60;;;5.73;;
17173;SDS011;8702;48.130;-1.696;2023-02-28T03:31:53;6.13;;;5.20;;
17173;SDS011;8702;48.130;-1.696;2023-02-28T03:34:26;7.60;;;5.60;;
17173;SDS011;8702;48.130;-1.696;2023-02-28T03:36:59;7.10;;;5.60;;
17173;SDS011;8702;48.130;-1.696;2023-02-28T03:39:31;7.67;;;5.33;;
17173;SDS011;8702;48.130;-1.696;2023-02-28T03:42:04;6.47;;;5.20;;
17173;SDS011;8702;48.130;-1.696;2023-02-28T03:44:34;7.80;;;5.27;;
17173;SDS011;8702;48.130;-1.696;2023-02-28T03:47:06;10.40;;;5.40;;
17173;SDS011;8702;48.130;-1.696;2023-02-28T03:49:36;8.67;;;5.90;;
17173;SDS011;8702;48.130;-1.696;2023-02-28T03:52:09;9.40;;;5.80;;
17173;SDS011;8702;48.130;-1.696;2023-02-28T03:54:39;8.57;;;5.63;;
17173;SDS011;8702;48.130;-1.696;2023-02-28T03:57:10;9.57;;;5.77;;
17173;SDS011;8702;48.130;-1.696;2023-02-28T03:59:42;8.90;;;5.60;;
17173;SDS011;8702;48.130;-1.696;2023-02-28T04:02:11;7.37;;;5.70;;
17173;SDS011;8702;48.130;-1.696;2023-02-28T04:04:38;8.33;;;5.97;;
17173;SDS011;8702;48.130;-1.696;2023-02-28T04:07:13;7.40;;;6.10;;
17173;SDS011;8702;48.130;-1.696;2023-02-28T04:09:42;9.93;;;6.37;;
17173;SDS011;8702;48.130;-1.696;2023-02-28T04:12:09;11.93;;;6.50;;
17173;SDS011;8702;48.130;-1.696;2023-02-28T04:14:36;9.13;;;6.47;;
17173;SDS011;8702;48.130;-1.696;2023-02-28T04:17:03;8.27;;;6.10;;
17173;SDS011;8702;48.130;-1.696;2023-02-28T04:19:30;7.13;;;6.07;;
17173;SDS011;8702;48.130;-1.696;2023-02-28T04:21:57;8.53;;;6.10;;
17173;SDS011;8702;48.130;-1.696;2023-02-28T04:24:24;7.97;;;6.37;;
17173;SDS011;8702;48.130;-1.696;2023-02-28T04:26:55;9.23;;;6.03;;
17173;SDS011;8702;48.130;-1.696;2023-02-28T04:29:24;9.53;;;7.17;;
17173;SDS011;8702;48.130;-1.696;2023-02-28T04:31:52;8.60;;;6.93;;
17173;SDS011;8702;48.130;-1.696;2023-02-28T04:34:19;7.87;;;6.87;;
17173;SDS011;8702;48.130;-1.696;2023-02-28T04:36:47;10.13;;;6.63;;
17173;SDS011;8702;48.130;-1.696;2023-02-28T04:39:15;9.63;;;6.57;;
17173;SDS011;8702;48.130;-1.696;2023-02-28T04:41:43;10.33;;;6.50;;
17173;SDS011;8702;48.130;-1.696;2023-02-28T04:44:12;8.40;;;6.83;;
17173;SDS011;8702;48.130;-1.696;2023-02-28T04:46:39;11.30;;;7.53;;
17173;SDS011;8702;48.130;-1.696;2023-02-28T04:49:06;9.50;;;7.00;;
17173;SDS011;8702;48.130;-1.696;2023-02-28T04:51:34;8.93;;;6.93;;
17173;SDS011;8702;48.130;-1.696;2023-02-28T04:54:01;7.57;;;6.77;;
17173;SDS011;8702;48.130;-1.696;2023-02-28T04:56:28;10.27;;;7.47;;
17173;SDS011;8702;48.130;-1.696;2023-02-28T04:58:54;9.53;;;7.83;;
17173;SDS011;8702;48.130;-1.696;2023-02-28T05:01:23;10.03;;;7.73;;
17173;SDS011;8702;48.130;-1.696;2023-02-28T05:03:52;7.87;;;7.00;;
17173;SDS011;8702;48.130;-1.696;2023-02-28T05:06:22;10.33;;;7.83;;
17173;SDS011;8702;48.130;-1.696;2023-02-28T05:08:50;11.47;;;7.57;;
17173;SDS011;8702;48.130;-1.696;2023-02-28T05:11:18;10.43;;;7.60;;
17173;SDS011;8702;48.130;-1.696;2023-02-28T05:13:46;10.03;;;7.60;;
17173;SDS011;8702;48.130;-1.696;2023-02-28T05:16:14;10.67;;;8.83;;
17173;SDS011;8702;48.130;-1.696;2023-02-28T05:18:43;10.20;;;8.27;;
17173;SDS011;8702;48.130;-1.696;2023-02-28T05:21:21;12.50;;;8.77;;
17173;SDS011;8702;48.130;-1.696;2023-02-28T05:23:51;8.83;;;7.93;;
17173;SDS011;8702;48.130;-1.696;2023-02-28T05:26:18;12.23;;;8.27;;
17173;SDS011;8702;48.130;-1.696;2023-02-28T05:28:45;9.83;;;7.40;;
17173;SDS011;8702;48.130;-1.696;2023-02-28T05:31:12;9.20;;;7.53;;
17173;SDS011;8702;48.130;-1.696;2023-02-28T05:33:40;8.70;;;7.80;;
17173;SDS011;8702;48.130;-1.696;2023-02-28T05:36:08;9.80;;;8.73;;
17173;SDS011;8702;48.130;-1.696;2023-02-28T05:38:35;12.03;;;8.73;;
17173;SDS011;8702;48.130;-1.696;2023-02-28T05:41:05;9.40;;;8.30;;
17173;SDS011;8702;48.130;-1.696;2023-02-28T05:43:33;9.57;;;8.57;;
17173;SDS011;8702;48.130;-1.696;2023-02-28T05:46:01;10.33;;;8.57;;
17173;SDS011;8702;48.130;-1.696;2023-02-28T05:48:30;10.53;;;8.53;;
17173;SDS011;8702;48.130;-1.696;2023-02-28T05:50:57;10.47;;;9.03;;
17173;SDS011;8702;48.130;-1.696;2023-02-28T05:53:26;9.63;;;8.67;;
17173;SDS011;8702;48.130;-1.696;2023-02-28T05:55:53;9.90;;;8.90;;
17173;SDS011;8702;48.130;-1.696;2023-02-28T05:58:21;11.87;;;9.00;;
17173;SDS011;8702;48.130;-1.696;2023-02-28T06:00:50;10.80;;;9.20;;
17173;SDS011;8702;48.130;-1.696;2023-02-28T06:03:17;10.10;;;9.10;;
17173;SDS011;8702;48.130;-1.696;2023-02-28T06:05:44;12.90;;;9.27;;
17173;SDS011;8702;48.130;-1.696;2023-02-28T06:08:11;10.17;;;9.17;;
17173;SDS011;8702;48.130;-1.696;2023-02-28T06:10:39;9.43;;;8.43;;
17173;SDS011;8702;48.130;-1.696;2023-02-28T06:13:06;13.93;;;9.53;;
17173;SDS011;8702;48.130;-1.696;2023-02-28T06:15:36;12.90;;;9.87;;
17173;SDS011;8702;48.130;-1.696;2023-02-28T06:18:03;10.23;;;8.90;;
17173;SDS011;8702;48.130;-1.696;2023-02-28T06:20:30;11.60;;;10.10;;
17173;SDS011;8702;48.130;-1.696;2023-02-28T06:22:58;13.23;;;9.63;;
17173;SDS011;8702;48.130;-1.696;2023-02-28T06:25:25;11.93;;;9.43;;
17173;SDS011;8702;48.130;-1.696;2023-02-28T06:27:54;10.73;;;9.30;;
17173;SDS011;8702;48.130;-1.696;2023-02-28T06:30:21;12.17;;;9.70;;
17173;SDS011;8702;48.130;-1.696;2023-02-28T06:32:50;10.90;;;9.77;;
17173;SDS011;8702;48.130;-1.696;2023-02-28T06:35:17;10.97;;;9.70;;
17173;SDS011;8702;48.130;-1.696;2023-02-28T06:37:44;12.70;;;10.07;;
17173;SDS011;8702;48.130;-1.696;2023-02-28T06:40:12;12.03;;;9.97;;
17173;SDS011;8702;48.130;-1.696;2023-02-28T06:42:39;12.27;;;11.03;;
17173;SDS011;8702;48.130;-1.696;2023-02-28T06:45:09;14.10;;;10.03;;
17173;SDS011;8702;48.130;-1.696;2023-02-28T06:47:37;11.90;;;10.47;;
17173;SDS011;8702;48.130;-1.696;2023-02-28T06:50:06;11.77;;;10.57;;
17173;SDS011;8702;48.130;-1.696;2023-02-28T06:52:34;11.20;;;10.10;;
17173;SDS011;8702;48.130;-1.696;2023-02-28T06:55:03;10.70;;;9.67;;
17173;SDS011;8702;48.130;-1.696;2023-02-28T06:57:31;13.57;;;10.83;;
17173;SDS011;8702;48.130;-1.696;2023-02-28T06:59:59;14.70;;;11.17;;
17173;SDS011;8702;48.130;-1.696;2023-02-28T07:02:29;11.00;;;9.93;;
17173;SDS011;8702;48.130;-1.696;2023-02-28T07:04:56;12.47;;;11.17;;
17173;SDS011;8702;48.130;-1.696;2023-02-28T07:07:23;11.33;;;10.30;;
17173;SDS011;8702;48.130;-1.696;2023-02-28T07:09:50;14.40;;;12.23;;
17173;SDS011;8702;48.130;-1.696;2023-02-28T07:12:17;13.67;;;11.27;;
17173;SDS011;8702;48.130;-1.696;2023-02-28T07:14:44;12.70;;;10.53;;
17173;SDS011;8702;48.130;-1.696;2023-02-28T07:17:11;10.90;;;9.90;;
17173;SDS011;8702;48.130;-1.696;2023-02-28T07:19:39;13.57;;;11.43;;
17173;SDS011;8702;48.130;-1.696;2023-02-28T07:22:06;12.10;;;10.63;;
17173;SDS011;8702;48.130;-1.696;2023-02-28T07:24:33;12.97;;;11.67;;
17173;SDS011;8702;48.130;-1.696;2023-02-28T07:27:00;15.67;;;12.47;;
17173;SDS011;8702;48.130;-1.696;2023-02-28T07:29:30;12.90;;;11.60;;
17173;SDS011;8702;48.130;-1.696;2023-02-28T07:31:57;12.67;;;11.40;;
17173;SDS011;8702;48.130;-1.696;2023-02-28T07:34:24;13.00;;;11.87;;
17173;SDS011;8702;48.130;-1.696;2023-02-28T07:36:53;16.60;;;12.93;;
17173;SDS011;8702;48.130;-1.696;2023-02-28T07:39:21;14.03;;;12.37;;
17173;SDS011;8702;48.130;-1.696;2023-02-28T07:41:48;13.90;;;12.37;;
17173;SDS011;8702;48.130;-1.696;2023-02-28T07:44:17;16.30;;;12.80;;
17173;SDS011;8702;48.130;-1.696;2023-02-28T07:46:44;15.23;;;13.63;;
17173;SDS011;8702;48.130;-1.696;2023-02-28T07:49:10;18.73;;;13.03;;
17173;SDS011;8702;48.130;-1.696;2023-02-28T07:51:37;18.83;;;14.13;;
17173;SDS011;8702;48.130;-1.696;2023-02-28T07:54:06;16.07;;;13.43;;
17173;SDS011;8702;48.130;-1.696;2023-02-28T07:56:32;14.40;;;12.90;;
17173;SDS011;8702;48.130;-1.696;2023-02-28T07:58:59;15.53;;;13.93;;
17173;SDS011;8702;48.130;-1.696;2023-02-28T08:01:27;16.87;;;13.50;;
17173;SDS011;8702;48.130;-1.696;2023-02-28T08:03:54;17.73;;;14.13;;
17173;SDS011;8702;48.130;-1.696;2023-02-28T08:06:22;17.67;;;13.83;;
17173;SDS011;8702;48.130;-1.696;2023-02-28T08:08:51;14.97;;;13.47;;
17173;SDS011;8702;48.130;-1.696;2023-02-28T08:11:20;16.63;;;14.57;;
17173;SDS011;8702;48.130;-1.696;2023-02-28T08:13:47;16.13;;;13.90;;
17173;SDS011;8702;48.130;-1.696;2023-02-28T08:16:14;16.17;;;13.10;;
17173;SDS011;8702;48.130;-1.696;2023-02-28T08:18:47;15.63;;;13.80;;
17173;SDS011;8702;48.130;-1.696;2023-02-28T08:21:15;18.97;;;13.57;;
17173;SDS011;8702;48.130;-1.696;2023-02-28T08:23:42;15.37;;;13.77;;
17173;SDS011;8702;48.130;-1.696;2023-02-28T08:26:09;17.80;;;14.13;;
17173;SDS011;8702;48.130;-1.696;2023-02-28T08:28:37;15.87;;;14.30;;
17173;SDS011;8702;48.130;-1.696;2023-02-28T08:31:07;16.13;;;14.43;;
17173;SDS011;8702;48.130;-1.696;2023-02-28T08:33:35;15.67;;;14.17;;
17173;SDS011;8702;48.130;-1.696;2023-02-28T08:36:05;15.50;;;13.90;;
17173;SDS011;8702;48.130;-1.696;2023-02-28T08:38:34;16.77;;;14.23;;
17173;SDS011;8702;48.130;-1.696;2023-02-28T08:41:02;17.73;;;14.40;;
17173;SDS011;8702;48.130;-1.696;2023-02-28T08:43:32;18.03;;;14.77;;
17173;SDS011;8702;48.130;-1.696;2023-02-28T08:46:00;16.53;;;14.80;;
17173;SDS011;8702;48.130;-1.696;2023-02-28T08:48:28;17.63;;;14.40;;
17173;SDS011;8702;48.130;-1.696;2023-02-28T08:50:57;15.53;;;13.93;;
17173;SDS011;8702;48.130;-1.696;2023-02-28T08:53:25;20.90;;;15.17;;
17173;SDS011;8702;48.130;-1.696;2023-02-28T08:55:56;16.63;;;14.97;;
17173;SDS011;8702;48.130;-1.696;2023-02-28T08:58:23;18.30;;;16.37;;
17173;SDS011;8702;48.130;-1.696;2023-02-28T09:00:50;20.57;;;14.60;;
17173;SDS011;8702;48.130;-1.696;2023-02-28T09:03:19;15.67;;;14.07;;
17173;SDS011;8702;48.130;-1.696;2023-02-28T09:05:54;17.50;;;15.73;;
17173;SDS011;8702;48.130;-1.696;2023-02-28T09:08:21;16.63;;;15.03;;
17173;SDS011;8702;48.130;-1.696;2023-02-28T09:10:48;16.73;;;15.03;;
17173;SDS011;8702;48.130;-1.696;2023-02-28T09:13:16;16.73;;;14.93;;
17173;SDS011;8702;48.130;-1.696;2023-02-28T09:15:43;16.03;;;14.33;;
17173;SDS011;8702;48.130;-1.696;2023-02-28T09:18:10;16.97;;;15.07;;
17173;SDS011;8702;48.130;-1.696;2023-02-28T09:20:39;17.97;;;14.77;;
17173;SDS011;8702;48.130;-1.696;2023-02-28T09:23:06;16.03;;;14.37;;
17173;SDS011;8702;48.130;-1.696;2023-02-28T09:25:33;16.03;;;14.07;;
17173;SDS011;8702;48.130;-1.696;2023-02-28T09:28:00;17.07;;;13.87;;
17173;SDS011;8702;48.130;-1.696;2023-02-28T09:30:28;14.67;;;13.20;;
17173;SDS011;8702;48.130;-1.696;2023-02-28T09:32:55;16.27;;;13.53;;
17173;SDS011;8702;48.130;-1.696;2023-02-28T09:35:22;15.03;;;13.53;;
17173;SDS011;8702;48.130;-1.696;2023-02-28T09:37:53;13.80;;;12.40;;
17173;SDS011;8702;48.130;-1.696;2023-02-28T09:40:20;14.47;;;12.93;;
17173;SDS011;8702;48.130;-1.696;2023-02-28T09:42:50;14.47;;;13.07;;
17173;SDS011;8702;48.130;-1.696;2023-02-28T09:45:23;15.23;;;13.57;;
17173;SDS011;8702;48.130;-1.696;2023-02-28T09:47:54;14.43;;;12.60;;
17173;SDS011;8702;48.130;-1.696;2023-02-28T09:50:28;12.63;;;11.33;;
17173;SDS011;8702;48.130;-1.696;2023-02-28T09:53:02;14.73;;;12.50;;
17173;SDS011;8702;48.130;-1.696;2023-02-28T09:55:37;14.33;;;11.70;;
17173;SDS011;8702;48.130;-1.696;2023-02-28T09:58:09;13.97;;;11.87;;
17173;SDS011;8702;48.130;-1.696;2023-02-28T10:00:55;13.90;;;11.93;;
17173;SDS011;8702;48.130;-1.696;2023-02-28T10:03:27;12.90;;;11.20;;
17173;SDS011;8702;48.130;-1.696;2023-02-28T10:05:59;12.13;;;10.87;;
17173;SDS011;8702;48.130;-1.696;2023-02-28T10:08:35;10.03;;;9.00;;
17173;SDS011;8702;48.130;-1.696;2023-02-28T10:11:11;11.53;;;10.33;;
17173;SDS011;8702;48.130;-1.696;2023-02-28T10:13:46;12.33;;;9.17;;
17173;SDS011;8702;48.130;-1.696;2023-02-28T10:16:20;11.93;;;9.53;;
17173;SDS011;8702;48.130;-1.696;2023-02-28T10:18:52;10.80;;;9.37;;
17173;SDS011;8702;48.130;-1.696;2023-02-28T10:21:24;10.07;;;7.83;;
17173;SDS011;8702;48.130;-1.696;2023-02-28T10:23:59;7.93;;;7.13;;
17173;SDS011;8702;48.130;-1.696;2023-02-28T10:26:31;7.73;;;6.93;;
17173;SDS011;8702;48.130;-1.696;2023-02-28T10:28:59;6.67;;;6.07;;
17173;SDS011;8702;48.130;-1.696;2023-02-28T10:31:27;10.07;;;7.00;;
17173;SDS011;8702;48.130;-1.696;2023-02-28T10:33:55;7.50;;;6.70;;
17173;SDS011;8702;48.130;-1.696;2023-02-28T10:36:23;8.90;;;7.40;;
17173;SDS011;8702;48.130;-1.696;2023-02-28T10:38:50;8.67;;;7.73;;
17173;SDS011;8702;48.130;-1.696;2023-02-28T10:41:29;11.27;;;7.80;;
17173;SDS011;8702;48.130;-1.696;2023-02-28T10:44:12;9.03;;;7.47;;
17173;SDS011;8702;48.130;-1.696;2023-02-28T10:46:41;7.40;;;6.70;;
17173;SDS011;8702;48.130;-1.696;2023-02-28T10:49:12;8.17;;;6.60;;
17173;SDS011;8702;48.130;-1.696;2023-02-28T10:51:43;7.60;;;6.27;;
17173;SDS011;8702;48.130;-1.696;2023-02-28T10:54:16;8.00;;;6.23;;
17173;SDS011;8702;48.130;-1.696;2023-02-28T10:56:49;7.20;;;6.50;;
17173;SDS011;8702;48.130;-1.696;2023-02-28T10:59:33;7.33;;;6.53;;
17173;SDS011;8702;48.130;-1.696;2023-02-28T11:02:01;7.00;;;6.30;;
17173;SDS011;8702;48.130;-1.696;2023-02-28T11:04:32;6.60;;;5.90;;
17173;SDS011;8702;48.130;-1.696;2023-02-28T11:07:05;9.37;;;6.23;;
17173;SDS011;8702;48.130;-1.696;2023-02-28T11:09:44;6.17;;;5.20;;
17173;SDS011;8702;48.130;-1.696;2023-02-28T11:12:20;6.83;;;4.63;;
17173;SDS011;8702;48.130;-1.696;2023-02-28T11:14:50;7.53;;;6.70;;
17173;SDS011;8702;48.130;-1.696;2023-02-28T11:17:19;7.33;;;5.60;;
17173;SDS011;8702;48.130;-1.696;2023-02-28T11:19:51;6.63;;;5.53;;
17173;SDS011;8702;48.130;-1.696;2023-02-28T11:22:22;6.77;;;6.13;;
17173;SDS011;8702;48.130;-1.696;2023-02-28T11:24:53;7.13;;;5.60;;
17173;SDS011;8702;48.130;-1.696;2023-02-28T11:27:26;5.67;;;5.10;;
17173;SDS011;8702;48.130;-1.696;2023-02-28T11:32:55;4.87;;;4.30;;
17173;SDS011;8702;48.130;-1.696;2023-02-28T11:35:23;4.33;;;3.93;;
17173;SDS011;8702;48.130;-1.696;2023-02-28T11:37:53;6.67;;;4.40;;
17173;SDS011;8702;48.130;-1.696;2023-02-28T11:40:21;5.73;;;4.17;;
17173;SDS011;8702;48.130;-1.696;2023-02-28T11:42:59;5.07;;;3.93;;
17173;SDS011;8702;48.130;-1.696;2023-02-28T11:45:39;7.47;;;4.00;;
17173;SDS011;8702;48.130;-1.696;2023-02-28T11:48:13;5.37;;;4.57;;
17173;SDS011;8702;48.130;-1.696;2023-02-28T11:50:48;6.90;;;4.97;;
17173;SDS011;8702;48.130;-1.696;2023-02-28T11:53:34;5.13;;;4.27;;
17173;SDS011;8702;48.130;-1.696;2023-02-28T11:56:15;5.97;;;4.87;;
17173;SDS011;8702;48.130;-1.696;2023-02-28T11:58:52;4.53;;;3.97;;
17173;SDS011;8702;48.130;-1.696;2023-02-28T12:01:31;4.83;;;3.87;;
17173;SDS011;8702;48.130;-1.696;2023-02-28T12:04:10;3.77;;;3.47;;
17173;SDS011;8702;48.130;-1.696;2023-02-28T12:06:45;5.03;;;3.83;;
17173;SDS011;8702;48.130;-1.696;2023-02-28T12:09:27;4.30;;;3.90;;
17173;SDS011;8702;48.130;-1.696;2023-02-28T12:12:07;3.60;;;3.30;;
17173;SDS011;8702;48.130;-1.696;2023-02-28T12:15:05;4.80;;;4.33;;
17173;SDS011;8702;48.130;-1.696;2023-02-28T12:17:46;6.40;;;4.10;;
17173;SDS011;8702;48.130;-1.696;2023-02-28T12:20:24;5.27;;;3.97;;
17173;SDS011;8702;48.130;-1.696;2023-02-28T12:23:00;4.83;;;3.93;;
17173;SDS011;8702;48.130;-1.696;2023-02-28T12:28:36;4.87;;;4.37;;
17173;SDS011;8702;48.130;-1.696;2023-02-28T12:31:10;4.17;;;3.73;;
17173;SDS011;8702;48.130;-1.696;2023-02-28T12:33:43;5.33;;;4.37;;
17173;SDS011;8702;48.130;-1.696;2023-02-28T12:36:14;5.43;;;4.43;;
17173;SDS011;8702;48.130;-1.696;2023-02-28T12:38:44;6.03;;;4.53;;
17173;SDS011;8702;48.130;-1.696;2023-02-28T12:41:16;5.87;;;4.30;;
17173;SDS011;8702;48.130;-1.696;2023-02-28T12:43:46;4.40;;;4.00;;
17173;SDS011;8702;48.130;-1.696;2023-02-28T12:46:20;6.73;;;4.37;;
17173;SDS011;8702;48.130;-1.696;2023-02-28T12:48:50;4.73;;;3.47;;
17173;SDS011;8702;48.130;-1.696;2023-02-28T12:51:21;4.00;;;3.50;;
17173;SDS011;8702;48.130;-1.696;2023-02-28T12:53:54;4.17;;;3.33;;
17173;SDS011;8702;48.130;-1.696;2023-02-28T12:56:33;8.17;;;3.63;;
17173;SDS011;8702;48.130;-1.696;2023-02-28T12:59:06;3.17;;;2.70;;
17173;SDS011;8702;48.130;-1.696;2023-02-28T13:01:51;5.50;;;3.90;;
17173;SDS011;8702;48.130;-1.696;2023-02-28T13:04:45;4.20;;;3.30;;
17173;SDS011;8702;48.130;-1.696;2023-02-28T13:10:37;4.77;;;3.30;;
17173;SDS011;8702;48.130;-1.696;2023-02-28T13:13:05;4.27;;;3.10;;
17173;SDS011;8702;48.130;-1.696;2023-02-28T13:15:38;4.33;;;3.23;;
17173;SDS011;8702;48.130;-1.696;2023-02-28T13:18:20;3.77;;;3.00;;
17173;SDS011;8702;48.130;-1.696;2023-02-28T13:20:55;4.60;;;3.20;;
17173;SDS011;8702;48.130;-1.696;2023-02-28T13:23:36;4.47;;;3.50;;
17173;SDS011;8702;48.130;-1.696;2023-02-28T13:26:06;4.57;;;3.50;;
17173;SDS011;8702;48.130;-1.696;2023-02-28T13:38:15;4.63;;;3.17;;
17173;SDS011;8702;48.130;-1.696;2023-02-28T13:44:00;4.43;;;3.47;;
17173;SDS011;8702;48.130;-1.696;2023-02-28T13:46:30;3.70;;;3.30;;
17173;SDS011;8702;48.130;-1.696;2023-02-28T13:51:47;3.83;;;3.20;;
17173;SDS011;8702;48.130;-1.696;2023-02-28T13:54:30;5.03;;;3.37;;
17173;SDS011;8702;48.130;-1.696;2023-02-28T13:57:12;5.87;;;3.97;;
17173;SDS011;8702;48.130;-1.696;2023-02-28T13:59:51;4.97;;;3.83;;
17173;SDS011;8702;48.130;-1.696;2023-02-28T14:02:31;4.70;;;4.00;;
17173;SDS011;8702;48.130;-1.696;2023-02-28T14:05:12;4.53;;;3.03;;
17173;SDS011;8702;48.130;-1.696;2023-02-28T14:07:44;4.97;;;3.07;;
17173;SDS011;8702;48.130;-1.696;2023-02-28T14:10:21;3.73;;;3.10;;
17173;SDS011;8702;48.130;-1.696;2023-02-28T14:12:55;4.70;;;3.40;;
17173;SDS011;8702;48.130;-1.696;2023-02-28T14:18:30;5.03;;;3.67;;
17173;SDS011;8702;48.130;-1.696;2023-02-28T14:23:57;5.43;;;3.67;;
17173;SDS011;8702;48.130;-1.696;2023-02-28T14:26:56;7.43;;;4.53;;
17173;SDS011;8702;48.130;-1.696;2023-02-28T14:29:43;5.33;;;4.10;;
17173;SDS011;8702;48.130;-1.696;2023-02-28T14:32:32;5.20;;;4.70;;
17173;SDS011;8702;48.130;-1.696;2023-02-28T14:35:03;8.47;;;6.17;;
17173;SDS011;8702;48.130;-1.696;2023-02-28T14:37:40;12.07;;;9.13;;
17173;SDS011;8702;48.130;-1.696;2023-02-28T14:40:13;15.17;;;10.03;;
17173;SDS011;8702;48.130;-1.696;2023-02-28T14:42:46;14.87;;;10.43;;
17173;SDS011;8702;48.130;-1.696;2023-02-28T14:45:17;11.33;;;9.10;;
17173;SDS011;8702;48.130;-1.696;2023-02-28T14:47:46;12.07;;;8.50;;
17173;SDS011;8702;48.130;-1.696;2023-02-28T14:50:18;10.03;;;8.23;;
17173;SDS011;8702;48.130;-1.696;2023-02-28T14:52:47;14.80;;;10.23;;
17173;SDS011;8702;48.130;-1.696;2023-02-28T14:55:19;13.43;;;7.70;;
17173;SDS011;8702;48.130;-1.696;2023-02-28T14:57:52;9.17;;;8.27;;
17173;SDS011;8702;48.130;-1.696;2023-02-28T15:00:21;9.83;;;6.87;;
17173;SDS011;8702;48.130;-1.696;2023-02-28T15:02:50;8.40;;;6.70;;
17173;SDS011;8702;48.130;-1.696;2023-02-28T15:05:28;9.57;;;6.23;;
17173;SDS011;8702;48.130;-1.696;2023-02-28T15:08:11;7.03;;;6.07;;
17173;SDS011;8702;48.130;-1.696;2023-02-28T15:10:40;6.73;;;5.80;;
17173;SDS011;8702;48.130;-1.696;2023-02-28T15:13:11;7.17;;;5.47;;
17173;SDS011;8702;48.130;-1.696;2023-02-28T15:15:41;6.93;;;5.13;;
17173;SDS011;8702;48.130;-1.696;2023-02-28T15:18:13;6.50;;;5.80;;
17173;SDS011;8702;48.130;-1.696;2023-02-28T15:20:47;6.77;;;5.70;;
17173;SDS011;8702;48.130;-1.696;2023-02-28T15:23:15;6.60;;;5.57;;
17173;SDS011;8702;48.130;-1.696;2023-02-28T15:25:43;5.67;;;5.17;;
17173;SDS011;8702;48.130;-1.696;2023-02-28T15:28:12;6.27;;;5.67;;
17173;SDS011;8702;48.130;-1.696;2023-02-28T15:30:50;6.40;;;5.87;;
17173;SDS011;8702;48.130;-1.696;2023-02-28T15:33:20;6.70;;;5.83;;
17173;SDS011;8702;48.130;-1.696;2023-02-28T15:35:48;7.27;;;6.57;;
17173;SDS011;8702;48.130;-1.696;2023-02-28T15:38:16;7.33;;;6.63;;
17173;SDS011;8702;48.130;-1.696;2023-02-28T15:40:51;7.53;;;6.63;;
17173;SDS011;8702;48.130;-1.696;2023-02-28T15:43:24;7.87;;;7.17;;